• Join FlightAware (Why Join?)
  • Login
  • US Flag 
12:46PM EDT


 

Airport Tracker/Info


-or-


 

Live Flight TrackerFlight Track Log ✈ EJA396 ✈ 15-Dec-2013 ✈ KBOS - KRDU

Flight Track Log - Related Links

Times and Time Zones

All times are in EST time to prevent confusion due to time zone crossing. See the EJA396 flight status page for this flight to view local times or setup timezone preferences in your user account.

Time Position Orientation Groundspeed Altitude Reporting Facility
EST Latitude Longitude Course Direction KTS MPH feet Rate Location/Type
09:39PM 42.3667 -71.0000 324° Northwest 149 171 700  Level KA90
09:39PM 42.3833 -71.0167 324° Northwest 160 184 1,700 2,640 Climbing KA90
09:40PM 42.4000 -71.0833 289° West 179 206 4,200 2,700 Climbing KA90
09:42PM 42.3522 -71.1872 238° Southwest 242 278 8,900 3,000 Climbing Boston Center
09:43PM 42.2742 -71.1706 171° South 305 351 12,100 2,580 Climbing Boston Center
09:44PM 42.1942 -71.0897 143° Southeast 361 415 14,200 2,280 Climbing Boston Center
09:45PM 42.1125 -71.0031 142° Southeast 372 428 16,900 2,640 Climbing Boston Center
09:46PM 42.0297 -70.9250 145° Southeast 375 432 19,600 2,640 Climbing Boston Center
09:47PM 41.9408 -70.8414 145° Southeast 383 441 22,300 2,640 Climbing Boston Center
09:48PM 41.8411 -70.7944 161° South 388 447 25,000 2,460 Climbing Boston Center
09:49PM 41.7608 -70.8572 210° Southwest 342 394 27,400 2,040 Climbing Boston Center
09:50PM 41.6894 -70.9439 222° Southwest 347 399 29,200 1,800 Climbing Boston Center
09:51PM 41.6167 -71.0306 222° Southwest 350 403 31,000 1,980 Climbing Boston Center
09:52PM 41.5342 -71.1319 223° Southwest 338 389 33,200 1,920 Climbing Boston Center
09:53PM 41.4678 -71.2131 222° Southwest 328 377 35,000 1,320 Climbing Boston Center
09:54PM 41.4014 -71.2933 222° Southwest 319 367 36,000 480 Climbing Boston Center
09:55PM 41.3322 -71.3769 222° Southwest 334 384 36,000  Level Boston Center
09:56PM 41.2636 -71.4606 223° Southwest 341 392 36,000  Level Boston Center
09:57PM 41.1939 -71.5453 222° Southwest 341 392 36,000  Level Boston Center
09:58PM 41.1244 -71.6369 225° Southwest 342 394 36,000  Level Boston Center
09:59PM 41.0569 -71.7242 224° Southwest 339 390 36,000  Level Boston Center
10:00PM 40.9936 -71.8092 225° Southwest 336 387 36,000  Level Boston Center
10:01PM 40.9286 -71.8953 225° Southwest 333 383 36,000  Level Boston Center
10:02PM 40.8583 -71.9858 224° Southwest 334 384 36,000  Level Boston Center
10:03PM 40.7931 -72.0708 225° Southwest 331 381 36,000  Level Boston Center
10:04PM 40.7217 -72.1672 226° Southwest 338 389 36,000  Level Boston Center
10:05PM 40.6556 -72.2533 225° Southwest 335 386 36,000  Level Boston Center
10:06PM 40.5900 -72.3389 225° Southwest 333 383 36,000  Level Boston Center
10:07PM 40.5253 -72.4225 224° Southwest 329 379 36,000  Level Boston Center
10:08PM 40.4586 -72.5081 224° Southwest 332 382 36,000  Level Boston Center
10:09PM 40.3919 -72.5942 225° Southwest 336 387 36,000  Level Boston Center
10:10PM 40.3269 -72.6803 225° Southwest 334 384 36,000  Level Boston Center
10:11PM 40.2600 -72.7661 224° Southwest 336 387 36,000  Level Boston Center
10:12PM 40.1983 -72.8456 225° Southwest 332 382 36,000  Level Boston Center
10:13PM 40.1183 -72.9464 224° Southwest 331 381 36,000  Level Boston Center
10:14PM 40.0772 -73.0022 226° Southwest 336 387 36,000  Level Washington Center
10:15PM 40.0081 -73.0861 223° Southwest 341 392 36,000  Level Washington Center
10:16PM 39.9411 -73.1694 224° Southwest 341 392 36,000  Level Washington Center
10:17PM 39.8739 -73.2556 225° Southwest 341 392 36,000  Level Washington Center
10:18PM 39.8089 -73.3389 225° Southwest 341 392 36,000  Level Washington Center
10:19PM 39.7356 -73.4303 224° Southwest 341 392 36,000  Level Washington Center
10:20PM 39.6683 -73.5131 223° Southwest 341 392 36,000  Level Washington Center
10:21PM 39.6031 -73.5958 224° Southwest 341 392 36,000  Level Washington Center
10:22PM 39.5378 -73.6811 225° Southwest 341 392 36,000  Level Washington Center
10:23PM 39.4703 -73.7608 222° Southwest 341 392 36,000  Level Washington Center
10:24PM 39.4047 -73.8458 225° Southwest 341 392 36,000  Level Washington Center
10:25PM 39.3392 -73.9250 223° Southwest 341 392 36,000  Level Washington Center
10:26PM 39.2758 -74.0044 224° Southwest 336 387 36,000  Level Washington Center
10:27PM 39.2103 -74.0889 225° Southwest 331 381 36,000  Level Washington Center
10:28PM 39.1486 -74.1703 226° Southwest 326 375 36,000  Level Washington Center
10:29PM 39.0850 -74.2492 224° Southwest 326 375 36,000 -240 Level Washington Center
10:30PM 39.0211 -74.3306 225° Southwest 326 375 35,600 -780 Descending Washington Center
10:31PM 38.9575 -74.4117 225° Southwest 326 375 34,500 -1,140 Descending Washington Center
10:32PM 38.8914 -74.4956 225° Southwest 326 375 33,400 -1,140 Descending Washington Center
10:33PM 38.8275 -74.5792 226° Southwest 326 375 32,300 -720 Descending Washington Center
10:34PM 38.7617 -74.6653 226° Southwest 331 381 32,000 -180 Descending Washington Center
10:35PM 38.6914 -74.7511 224° Southwest 336 387 32,000  Level Washington Center
10:36PM 38.6211 -74.8397 225° Southwest 347 399 32,000  Level Washington Center
10:37PM 38.5508 -74.9253 224° Southwest 347 399 32,000  Level Washington Center
10:38PM 38.4844 -75.0108 225° Southwest 347 399 32,000  Level Washington Center
10:39PM 38.4139 -75.0961 223° Southwest 347 399 32,000  Level Washington Center
10:40PM 38.3433 -75.1786 223° Southwest 347 399 32,000  Level Washington Center
10:41PM 38.2769 -75.2717 228° Southwest 347 399 32,000  Level Washington Center
10:42PM 38.2083 -75.3592 225° Southwest 347 399 32,000  Level Washington Center
10:43PM 38.1375 -75.4411 222° Southwest 352 405 32,000  Level Washington Center
10:44PM 38.0708 -75.5153 221° Southwest 352 405 32,000  Level Washington Center
10:45PM 37.9981 -75.6103 226° Southwest 352 405 32,000  Level Washington Center
10:46PM 37.9311 -75.6919 224° Southwest 347 399 32,000  Level Washington Center
10:47PM 37.8622 -75.7786 225° Southwest 347 399 32,000  Level Washington Center
10:48PM 37.7994 -75.8467 221° Southwest 347 399 32,000  Level Washington Center
10:49PM 37.7306 -75.9383 226° Southwest 335 386 32,000  Level Washington Center
10:50PM 37.6636 -76.0194 224° Southwest 330 380 32,000  Level Washington Center
10:51PM 37.5986 -76.0978 224° Southwest 330 380 32,000 -420 Level Washington Center
10:52PM 37.5358 -76.1653 220° Southwest 330 380 31,200 -1,440 Descending Washington Center
10:53PM 37.4664 -76.2511 224° Southwest 342 394 29,300 -1,920 Descending Washington Center
10:54PM 37.3931 -76.3369 223° Southwest 347 399 27,400 -1,920 Descending Washington Center
10:55PM 37.3236 -76.4222 224° Southwest 352 405 25,500 -1,740 Descending Washington Center
10:56PM 37.2519 -76.5078 224° Southwest 357 411 24,000 -780 Descending Washington Center
10:57PM 37.1886 -76.6061 231° Southwest 357 411 24,000  Level Washington Center
10:58PM 37.1272 -76.7042 232° Southwest 357 411 24,000  Level Washington Center
10:59PM 37.0658 -76.7997 231° Southwest 357 411 24,000 -480 Level Washington Center
11:00PM 37.0044 -76.8922 230° Southwest 357 411 23,100 -1,020 Descending Washington Center
11:01PM 36.9450 -76.9847 231° Southwest 352 405 22,000 -600 Descending Washington Center
11:02PM 36.8833 -77.0797 231° Southwest 347 399 22,000 -240 Level Washington Center
11:03PM 36.8236 -77.1747 232° Southwest 352 405 21,600 -1,020 Descending Washington Center
11:04PM 36.7619 -77.2667 230° Southwest 352 405 20,000 -1,380 Descending Washington Center
11:05PM 36.7022 -77.3586 231° Southwest 347 399 19,000 -540 Descending Washington Center
11:06PM 36.6422 -77.4531 232° Southwest 347 399 19,000  Level Washington Center
11:07PM 36.5825 -77.5447 231° Southwest 347 399 19,000  Level Washington Center
11:08PM 36.5225 -77.6339 230° Southwest 347 399 19,000  Level Washington Center
11:09PM 36.4603 -77.7303 231° Southwest 347 399 19,000 -720 Level Washington Center
11:10PM 36.3983 -77.8164 228° Southwest 348 400 17,700 -1,560 Descending Washington Center
11:10PM 36.3981 -77.8319 269° West 353 406 17,500 -2,040 Descending Washington Center
11:10PM 36.3511 -77.8925 226° Southwest 329 379 16,100 -1,800 Descending Washington Center
11:11PM 36.3381 -77.9153 235° Southwest 343 395 15,700 -1,620 Descending Washington Center
11:11PM 36.2908 -77.9808 228° Southwest 327 376 14,400 -1,800 Descending Washington Center
11:12PM 36.2800 -78.0036 239° Southwest 338 389 13,900 -1,740 Descending Washington Center
11:12PM 36.2350 -78.0642 227° Southwest 320 368 12,700 -1,620 Descending Washington Center
11:13PM 36.2239 -78.0869 239° Southwest 332 382 12,300 -1,680 Descending Washington Center
11:14PM 36.1789 -78.1525 230° Southwest 308 354 10,900 -1,620 Descending Washington Center
11:14PM 36.1700 -78.1700 238° Southwest 321 369 10,700 -1,380 Descending Washington Center
11:15PM 36.1394 -78.2308 238° Southwest 247 284 9,500 -1,500 Descending Washington Center
11:15PM 36.1331 -78.2461 243° Southwest 279 321 9,200 -1,380 Descending Washington Center
11:16PM 36.1061 -78.3197 246° West 249 287 8,000 -1,200 Descending Washington Center
11:16PM 36.1061 -78.3247 270° West 258 297 8,000 -1,320 Level Washington Center
11:17PM 36.0814 -78.4011 248° West 250 288 6,700 -1,260 Descending Washington Center
11:18PM 36.0586 -78.4775 250° West 244 281 5,600 -1,140 Descending Washington Center
11:18PM 36.0544 -78.4850 236° Southwest 221 254 5,500 -1,140 Descending Washington Center
11:19PM 36.0361 -78.5433 249° West 227 261 4,500 -1,200 Descending Washington Center
11:19PM 36.0339 -78.5508 250° West 216 249 4,300 -1,440 Descending Washington Center
11:20PM 36.0050 -78.6244 244° Southwest 253 291 3,000 -720 Descending Washington Center
11:21PM 35.9597 -78.6764 223° Southwest 197 227 2,800 -480 Descending Washington Center
11:22PM 35.9317 -78.7164 229° Southwest 127 146 2,000 -780 Descending Washington Center
11:23PM 35.9058 -78.7489 226° Southwest 117 135 1,300 -720 Descending Washington Center
11:24PM 35.8819 -78.7786 225° Southwest 123 142 600 -720 Descending Washington Center
11:26PM 35.8776 -78.7875 North  Level Estimated